Time;durP1;ratioP1;P1;durP2;ratioP2;P2;SDS_P1;SDS_P2;PMS_P1;PMS_P2;Temp;Humidity;BMP_temperature;BMP_pressure;BME280_temperature;BME280_humidity;BME280_pressure;Samples;Min_cycle;Max_cycle;Signal;HPM_P1;HPM_P2
2023/10/23 00:01:40;;;;;;;3.57;3.27;;;13.90;99.90;;;;;;5018893;28;20199;-57
2023/10/23 00:04:06;;;;;;;4.53;1.40;;;13.80;99.90;;;;;;5013812;28;20309;-56
2023/10/23 00:06:33;;;;;;;1.57;1.20;;;13.80;99.90;;;;;;5012972;28;20210;-56
2023/10/23 00:08:58;;;;;;;6.13;1.33;;;13.80;99.90;;;;;;5005245;28;20206;-56
2023/10/23 00:11:26;;;;;;;4.07;1.83;;;13.80;99.90;;;;;;5012920;28;20225;-56
2023/10/23 00:13:51;;;;;;;1.60;1.03;;;13.80;99.90;;;;;;5013358;28;20645;-57
2023/10/23 00:16:18;;;;;;;2.53;1.47;;;13.80;99.90;;;;;;5013390;28;20224;-57
2023/10/23 00:18:44;;;;;;;1.67;1.30;;;13.70;99.90;;;;;;5018234;28;20742;-57
2023/10/23 00:21:09;;;;;;;0.87;0.83;;;13.60;99.90;;;;;;5015120;28;20284;-55
2023/10/23 00:23:35;;;;;;;3.63;1.53;;;13.60;99.90;;;;;;5020776;28;20335;-57
2023/10/23 00:26:01;;;;;;;2.10;1.43;;;13.60;99.90;;;;;;5018423;28;20209;-56
2023/10/23 00:28:27;;;;;;;1.50;1.40;;;13.50;99.90;;;;;;5018916;28;20207;-55
2023/10/23 00:30:53;;;;;;;1.93;1.27;;;13.40;99.90;;;;;;5017396;28;20270;-56
2023/10/23 00:33:18;;;;;;;1.33;1.23;;;13.40;99.90;;;;;;5017033;28;20792;-56
2023/10/23 00:35:44;;;;;;;1.33;1.23;;;13.40;99.90;;;;;;5016317;28;20235;-56
2023/10/23 00:38:09;;;;;;;2.57;1.30;;;13.40;99.90;;;;;;5012012;28;20221;-56
2023/10/23 00:40:35;;;;;;;1.50;1.40;;;13.40;99.90;;;;;;5022932;28;20209;-56
2023/10/23 00:43:11;;;;;;;2.93;1.13;;;13.40;99.90;;;;;;5016620;28;20200;-56
2023/10/23 00:45:39;;;;;;;2.47;1.70;;;13.30;99.90;;;;;;5003974;28;20198;-56
2023/10/23 00:48:05;;;;;;;2.17;1.53;;;13.40;99.90;;;;;;5016993;28;20293;-56
2023/10/23 00:50:31;;;;;;;1.70;1.13;;;13.40;99.90;;;;;;5017802;28;20294;-56
2023/10/23 00:52:56;;;;;;;2.57;1.60;;;13.30;99.90;;;;;;5012111;28;20683;-56
2023/10/23 00:55:22;;;;;;;2.50;1.43;;;13.10;99.90;;;;;;5011774;28;20216;-55
2023/10/23 00:57:47;;;;;;;1.33;1.23;;;13.10;99.90;;;;;;5012068;28;21103;-55
2023/10/23 01:00:13;;;;;;;1.27;1.17;;;13.20;99.90;;;;;;5014717;28;20210;-55
2023/10/23 01:02:39;;;;;;;2.60;1.47;;;13.20;99.90;;;;;;5012074;28;20670;-55
2023/10/23 01:05:05;;;;;;;2.47;1.67;;;13.20;99.90;;;;;;5013958;28;20253;-56
2023/10/23 01:07:31;;;;;;;1.53;1.43;;;13.30;99.90;;;;;;5009696;28;20317;-56
2023/10/23 01:09:56;;;;;;;3.90;1.30;;;13.30;99.90;;;;;;5015440;28;20301;-56
2023/10/23 01:12:22;;;;;;;2.43;1.30;;;13.20;99.90;;;;;;5016086;28;20709;-56
2023/10/23 01:14:47;;;;;;;4.30;1.47;;;13.20;99.90;;;;;;5015356;28;20228;-56
2023/10/23 01:17:12;;;;;;;1.83;1.67;;;13.20;99.90;;;;;;5011632;28;20628;-56
2023/10/23 01:19:38;;;;;;;2.17;1.40;;;13.20;99.90;;;;;;5020970;28;20275;-56
2023/10/23 01:22:03;;;;;;;6.37;1.70;;;13.20;99.90;;;;;;5011815;28;20242;-55
2023/10/23 01:24:32;;;;;;;2.30;1.07;;;13.20;99.90;;;;;;5015702;28;20211;-56
2023/10/23 01:26:57;;;;;;;1.67;1.30;;;13.10;99.90;;;;;;5015687;28;20245;-56
2023/10/23 01:29:23;;;;;;;3.07;1.47;;;13.10;99.90;;;;;;5011271;28;20255;-56
2023/10/23 01:31:48;;;;;;;1.37;1.27;;;13.10;99.90;;;;;;5011580;28;20261;-56
2023/10/23 01:34:14;;;;;;;1.60;1.50;;;13.00;99.90;;;;;;5013343;28;20225;-62
2023/10/23 01:36:39;;;;;;;1.57;1.37;;;13.00;99.90;;;;;;5015452;28;20200;-57
2023/10/23 01:39:05;;;;;;;2.00;1.40;;;13.00;99.90;;;;;;5011703;28;20478;-57
2023/10/23 01:41:30;;;;;;;1.97;1.50;;;13.00;99.90;;;;;;4994314;28;20247;-55
2023/10/23 01:43:56;;;;;;;3.37;1.70;;;13.00;99.90;;;;;;5016113;28;20287;-56
2023/10/23 01:46:22;;;;;;;1.50;1.30;;;12.90;99.90;;;;;;5017114;28;20828;-56
2023/10/23 01:48:47;;;;;;;1.50;1.40;;;12.90;99.90;;;;;;5015062;28;20210;-56
2023/10/23 01:51:13;;;;;;;2.00;1.10;;;12.80;99.90;;;;;;5016186;28;20214;-55
2023/10/23 01:53:38;;;;;;;2.30;1.90;;;12.90;99.90;;;;;;5011751;28;20191;-56
2023/10/23 01:56:07;;;;;;;1.80;1.70;;;12.90;99.90;;;;;;5016662;28;20208;-56
2023/10/23 01:58:32;;;;;;;1.50;1.40;;;13.00;99.90;;;;;;5017388;28;20195;-56
2023/10/23 02:00:58;;;;;;;1.73;0.97;;;12.90;99.90;;;;;;5018072;28;20209;-56
2023/10/23 02:03:23;;;;;;;2.07;1.67;;;12.80;99.90;;;;;;5013553;28;20200;-56
2023/10/23 02:05:49;;;;;;;3.37;1.73;;;12.80;99.90;;;;;;5020773;28;20289;-57
2023/10/23 02:08:16;;;;;;;1.53;1.43;;;12.80;99.90;;;;;;5014756;28;20292;-56
2023/10/23 02:10:42;;;;;;;2.67;1.53;;;12.80;99.90;;;;;;5021546;28;20822;-56
2023/10/23 02:13:07;;;;;;;3.77;1.67;;;12.80;99.90;;;;;;5015468;28;20211;-56
2023/10/23 02:15:33;;;;;;;4.50;1.80;;;12.80;99.90;;;;;;5014822;28;20534;-55
2023/10/23 02:17:58;;;;;;;3.20;1.67;;;12.90;99.90;;;;;;5015032;28;20200;-56
2023/10/23 02:20:27;;;;;;;2.60;1.67;;;12.90;99.90;;;;;;5016393;28;21081;-56
2023/10/23 02:22:52;;;;;;;3.30;1.70;;;12.90;99.90;;;;;;5012703;28;20195;-56
2023/10/23 02:25:18;;;;;;;1.70;1.60;;;12.90;99.90;;;;;;5014533;28;20213;-56
2023/10/23 02:27:43;;;;;;;1.80;1.70;;;12.90;99.90;;;;;;5014681;28;20199;-56
2023/10/23 02:30:09;;;;;;;2.47;1.40;;;12.90;99.90;;;;;;5014717;28;20274;-55
2023/10/23 02:32:35;;;;;;;2.27;1.60;;;12.90;99.90;;;;;;5005087;28;20206;-56
2023/10/23 02:35:01;;;;;;;4.13;2.07;;;12.90;99.90;;;;;;5019877;28;20207;-56
2023/10/23 02:37:26;;;;;;;2.70;1.40;;;12.90;99.90;;;;;;5012395;28;20257;-57
2023/10/23 02:39:53;;;;;;;2.80;1.40;;;12.90;99.90;;;;;;5014227;28;20286;-55
2023/10/23 02:42:18;;;;;;;1.40;1.33;;;12.90;99.90;;;;;;5014729;28;20204;-55
2023/10/23 02:44:44;;;;;;;4.03;2.43;;;12.90;99.90;;;;;;5014625;28;20192;-55
2023/10/23 02:47:10;;;;;;;2.40;1.83;;;12.80;99.90;;;;;;5016565;28;20190;-55
2023/10/23 02:49:36;;;;;;;5.47;1.87;;;12.70;99.90;;;;;;5014634;28;20718;-56
2023/10/23 02:52:02;;;;;;;3.33;1.63;;;12.70;99.90;;;;;;5022990;28;20205;-55
2023/10/23 02:54:29;;;;;;;3.03;2.10;;;12.70;99.90;;;;;;5017359;28;20371;-55
2023/10/23 02:56:55;;;;;;;1.60;1.50;;;12.80;99.90;;;;;;5018333;28;20203;-56
2023/10/23 02:59:21;;;;;;;3.70;1.33;;;12.70;99.90;;;;;;5013949;28;20223;-57
2023/10/23 03:01:46;;;;;;;2.47;1.60;;;12.70;99.90;;;;;;5017989;28;20202;-55
2023/10/23 03:04:12;;;;;;;1.73;1.57;;;12.70;99.90;;;;;;5016913;28;20905;-55
2023/10/23 03:06:37;;;;;;;2.03;1.83;;;12.70;99.90;;;;;;5019679;28;20212;-57
2023/10/23 03:09:03;;;;;;;1.53;1.43;;;12.70;99.90;;;;;;5018036;28;20271;-57
2023/10/23 03:11:28;;;;;;;3.43;1.60;;;12.60;99.90;;;;;;5013586;28;21006;-55
2023/10/23 03:13:54;;;;;;;5.03;1.80;;;12.60;99.90;;;;;;5023494;28;20284;-55
2023/10/23 03:16:19;;;;;;;5.10;2.07;;;12.50;99.90;;;;;;5020304;28;20216;-55
2023/10/23 03:18:45;;;;;;;4.87;2.80;;;12.50;99.90;;;;;;5013877;28;20195;-56
2023/10/23 03:21:10;;;;;;;4.50;2.43;;;12.40;99.90;;;;;;5013953;28;20211;-57
2023/10/23 03:23:36;;;;;;;3.10;2.27;;;12.50;99.90;;;;;;5019068;28;20297;-57
2023/10/23 03:26:02;;;;;;;1.83;1.70;;;12.50;99.90;;;;;;5023172;28;20548;-57
2023/10/23 03:28:27;;;;;;;2.90;1.40;;;12.50;99.90;;;;;;5001176;28;20202;-57
2023/10/23 03:30:53;;;;;;;5.17;2.00;;;12.50;99.90;;;;;;5019852;28;20229;-57
2023/10/23 03:33:18;;;;;;;5.43;1.80;;;12.50;99.90;;;;;;5016708;28;20282;-58
2023/10/23 03:35:44;;;;;;;5.77;2.37;;;12.50;99.90;;;;;;5015167;28;20208;-56
2023/10/23 03:38:14;;;;;;;1.83;1.60;;;12.50;99.90;;;;;;5012965;28;20266;-56
2023/10/23 03:40:39;;;;;;;4.00;1.80;;;12.40;99.90;;;;;;5020880;28;20281;-60
2023/10/23 03:43:05;;;;;;;2.43;1.50;;;12.40;99.90;;;;;;5016608;28;21175;-58
2023/10/23 03:45:34;;;;;;;2.87;1.60;;;12.40;99.90;;;;;;5011722;28;20216;-57
2023/10/23 03:48:00;;;;;;;2.10;1.90;;;12.20;99.90;;;;;;5013262;28;20196;-58
2023/10/23 03:50:25;;;;;;;2.60;1.53;;;12.20;99.90;;;;;;5019956;28;20231;-55
2023/10/23 03:52:51;;;;;;;2.13;1.80;;;12.20;99.90;;;;;;5021495;28;20199;-56
2023/10/23 03:55:16;;;;;;;2.03;1.60;;;12.00;99.90;;;;;;5020293;28;20209;-56
2023/10/23 03:57:42;;;;;;;1.80;1.67;;;12.00;99.90;;;;;;5021934;28;20198;-55
2023/10/23 04:00:10;;;;;;;3.03;2.10;;;12.10;99.90;;;;;;5017458;28;21009;-55
2023/10/23 04:02:35;;;;;;;2.80;2.03;;;12.20;99.90;;;;;;5016919;28;20670;-55
2023/10/23 04:05:01;;;;;;;2.23;1.70;;;12.10;99.90;;;;;;5016457;28;20212;-56
2023/10/23 04:07:26;;;;;;;2.03;1.90;;;11.90;99.90;;;;;;5016393;28;20218;-55
2023/10/23 04:09:52;;;;;;;2.87;2.00;;;11.70;99.90;;;;;;5012778;28;20315;-56
2023/10/23 04:12:17;;;;;;;4.63;2.13;;;11.70;99.90;;;;;;5020591;28;20691;-56
2023/10/23 04:14:46;;;;;;;1.30;1.30;;;11.70;99.90;;;;;;5018718;28;20263;-55
2023/10/23 04:17:12;;;;;;;1.90;1.80;;;11.60;99.90;;;;;;5014407;28;20207;-55
2023/10/23 04:19:38;;;;;;;2.80;1.77;;;11.70;99.90;;;;;;5019441;28;20275;-56
2023/10/23 04:22:03;;;;;;;5.97;2.10;;;11.80;99.90;;;;;;5015679;28;20672;-55
2023/10/23 04:24:30;;;;;;;3.07;1.70;;;11.90;99.90;;;;;;5017052;28;20193;-56
2023/10/23 04:26:55;;;;;;;2.80;2.27;;;11.70;99.90;;;;;;5000654;28;20195;-58
2023/10/23 04:29:21;;;;;;;2.10;1.60;;;11.90;99.90;;;;;;5019659;28;20202;-57
2023/10/23 04:31:46;;;;;;;4.80;2.23;;;12.00;99.90;;;;;;5024146;28;20262;-57
2023/10/23 04:34:12;;;;;;;2.10;2.00;;;12.00;99.90;;;;;;5026157;28;20754;-57
2023/10/23 04:36:37;;;;;;;2.97;2.13;;;12.10;99.90;;;;;;5027362;28;20215;-57
2023/10/23 04:39:03;;;;;;;2.30;2.00;;;12.10;99.90;;;;;;5021327;28;20208;-57
2023/10/23 04:41:28;;;;;;;1.97;1.83;;;12.10;99.90;;;;;;5024291;28;20214;-57
2023/10/23 04:43:53;;;;;;;4.07;2.53;;;12.00;99.90;;;;;;5018028;28;20756;-57
2023/10/23 04:46:20;;;;;;;3.20;2.23;;;12.10;99.90;;;;;;5024917;28;20245;-57
2023/10/23 04:48:46;;;;;;;5.57;2.43;;;12.00;99.90;;;;;;5021446;28;20295;-57
2023/10/23 04:51:11;;;;;;;2.53;2.33;;;11.90;99.90;;;;;;5024485;28;20245;-57
2023/10/23 04:53:36;;;;;;;2.70;2.50;;;11.80;99.90;;;;;;5019219;28;20205;-57
2023/10/23 04:56:05;;;;;;;3.30;3.07;;;11.70;99.90;;;;;;5017249;28;20571;-56
2023/10/23 04:58:30;;;;;;;5.57;3.60;;;11.70;99.90;;;;;;5022283;28;20193;-56
2023/10/23 05:00:56;;;;;;;4.93;2.60;;;11.80;99.90;;;;;;5026912;28;20197;-56
2023/10/23 05:03:21;;;;;;;4.20;3.00;;;11.80;99.90;;;;;;5018451;28;20206;-56
2023/10/23 05:05:48;;;;;;;2.70;2.50;;;11.90;99.90;;;;;;5017685;28;20757;-56
2023/10/23 05:08:13;;;;;;;4.63;3.57;;;11.90;99.90;;;;;;5019898;28;20193;-56
2023/10/23 05:10:39;;;;;;;3.03;2.73;;;12.00;99.90;;;;;;5018198;28;20312;-57
2023/10/23 05:13:04;;;;;;;5.40;2.20;;;12.00;99.90;;;;;;5017147;28;20204;-57
2023/10/23 05:15:31;;;;;;;5.90;2.47;;;12.00;99.90;;;;;;5015791;28;20186;-57
2023/10/23 05:17:56;;;;;;;2.90;2.60;;;12.00;99.90;;;;;;5020007;28;20211;-58
2023/10/23 05:20:22;;;;;;;3.53;2.90;;;12.00;99.90;;;;;;5021723;28;20200;-58
2023/10/23 05:22:47;;;;;;;3.50;2.90;;;12.00;99.90;;;;;;5018989;28;20197;-57
2023/10/23 05:25:13;;;;;;;3.33;3.03;;;12.00;99.90;;;;;;5016427;28;20293;-57
2023/10/23 05:27:38;;;;;;;5.93;3.63;;;12.00;99.90;;;;;;5020036;28;20207;-58
2023/10/23 05:30:05;;;;;;;3.30;3.00;;;12.00;99.90;;;;;;5021062;28;20235;-56
2023/10/23 05:32:34;;;;;;;4.67;2.83;;;12.00;99.90;;;;;;5021723;28;20215;-57
2023/10/23 05:35:01;;;;;;;3.17;2.87;;;12.00;99.90;;;;;;5017883;28;20205;-57
2023/10/23 05:37:27;;;;;;;3.43;3.13;;;12.00;99.90;;;;;;5018053;28;20198;-56
2023/10/23 05:39:52;;;;;;;4.60;3.20;;;12.00;99.90;;;;;;5016105;28;20816;-57
2023/10/23 05:42:18;;;;;;;6.30;4.83;;;12.00;99.90;;;;;;5019894;28;20206;-56
2023/10/23 05:44:43;;;;;;;3.63;3.37;;;11.90;99.90;;;;;;5011910;28;20287;-57
2023/10/23 05:47:09;;;;;;;4.23;3.07;;;11.80;99.90;;;;;;5016812;28;20205;-57
2023/10/23 05:49:34;;;;;;;9.17;4.87;;;11.90;99.90;;;;;;5015413;28;20210;-57
2023/10/23 05:52:00;;;;;;;3.47;3.17;;;11.80;99.90;;;;;;5017295;28;20290;-57
2023/10/23 05:54:25;;;;;;;3.47;3.17;;;11.80;99.90;;;;;;5019016;28;20236;-56
2023/10/23 05:56:51;;;;;;;4.07;3.77;;;11.90;99.90;;;;;;5018940;28;20247;-56
2023/10/23 05:59:16;;;;;;;5.47;3.60;;;11.90;99.90;;;;;;5015414;28;20215;-55
2023/10/23 06:01:42;;;;;;;4.10;3.63;;;11.90;99.90;;;;;;5017403;28;20988;-55
2023/10/23 06:04:07;;;;;;;5.13;4.63;;;11.90;99.90;;;;;;5016767;28;20197;-55
2023/10/23 06:06:33;;;;;;;6.37;3.83;;;11.80;99.90;;;;;;5017655;28;20296;-56
2023/10/23 06:08:59;;;;;;;5.13;4.63;;;11.80;99.90;;;;;;5016952;28;21223;-56
2023/10/23 06:11:25;;;;;;;6.37;4.23;;;11.70;99.90;;;;;;5014765;28;20223;-55
2023/10/23 06:13:50;;;;;;;4.00;3.70;;;11.70;99.90;;;;;;5014656;28;20766;-56
2023/10/23 06:16:16;;;;;;;4.43;3.87;;;11.60;99.90;;;;;;5014933;28;20638;-57
2023/10/23 06:18:41;;;;;;;4.93;4.20;;;11.70;99.90;;;;;;5013864;28;20205;-57
2023/10/23 06:21:07;;;;;;;3.53;3.23;;;11.60;99.90;;;;;;5015141;28;20225;-57
2023/10/23 06:23:37;;;;;;;5.97;4.10;;;11.60;99.90;;;;;;5018167;28;20284;-58
2023/10/23 06:26:08;;;;;;;4.80;3.97;;;11.70;99.90;;;;;;5016715;28;20217;-57
2023/10/23 06:28:34;;;;;;;4.97;4.07;;;11.80;99.90;;;;;;5016652;28;20205;-57
2023/10/23 06:31:07;;;;;;;4.30;3.90;;;11.80;99.90;;;;;;5023739;28;20239;-57
2023/10/23 06:33:32;;;;;;;5.57;3.83;;;11.80;99.90;;;;;;5004779;28;20228;-56
2023/10/23 06:36:03;;;;;;;4.23;3.57;;;11.90;99.90;;;;;;5002753;28;20554;-56
2023/10/23 06:38:29;;;;;;;4.63;4.17;;;11.90;99.90;;;;;;5020427;28;20190;-56
2023/10/23 06:40:54;;;;;;;4.23;3.77;;;11.90;99.90;;;;;;5014586;28;20203;-57
2023/10/23 06:43:20;;;;;;;5.57;4.47;;;11.90;99.90;;;;;;5016276;28;20708;-56
2023/10/23 06:45:45;;;;;;;7.07;4.53;;;12.00;99.90;;;;;;5013277;28;20209;-57
2023/10/23 06:48:13;;;;;;;4.40;4.00;;;12.00;99.90;;;;;;5015637;28;20316;-56
2023/10/23 06:50:45;;;;;;;5.60;5.20;;;12.10;99.90;;;;;;5020157;28;20232;-56
2023/10/23 06:53:11;;;;;;;6.23;4.60;;;12.00;99.90;;;;;;5019746;28;20237;-56
2023/10/23 06:55:36;;;;;;;5.20;4.80;;;11.80;99.90;;;;;;5014683;28;20231;-56
2023/10/23 06:58:02;;;;;;;8.00;4.40;;;11.90;99.90;;;;;;5014026;28;20294;-57
2023/10/23 07:00:28;;;;;;;9.67;5.57;;;12.00;99.90;;;;;;5014415;28;20215;-56
2023/10/23 07:02:53;;;;;;;6.80;5.10;;;11.90;99.90;;;;;;5014342;28;20815;-62
2023/10/23 07:05:18;;;;;;;6.00;4.90;;;11.90;99.90;;;;;;5013778;28;20198;-57
2023/10/23 07:07:44;;;;;;;6.07;5.47;;;12.10;99.90;;;;;;5015777;28;20263;-59
2023/10/23 07:10:09;;;;;;;5.67;5.17;;;12.10;99.90;;;;;;5013183;28;20220;-57
2023/10/23 07:12:35;;;;;;;5.70;5.20;;;12.10;99.90;;;;;;5017635;28;20654;-57
2023/10/23 07:15:01;;;;;;;7.77;5.03;;;12.20;99.90;;;;;;5076633;22;20248;-55
2023/10/23 07:17:27;;;;;;;6.03;5.43;;;12.30;99.90;;;;;;5052871;28;20219;-55
2023/10/23 07:19:53;;;;;;;6.70;5.30;;;12.30;99.90;;;;;;5052317;28;20208;-66
2023/10/23 07:22:20;;;;;;;5.10;4.60;;;12.40;99.90;;;;;;5035146;28;20197;-62
2023/10/23 07:24:46;;;;;;;6.53;5.43;;;12.30;99.90;;;;;;5053124;28;20342;-58
2023/10/23 07:27:15;;;;;;;6.23;4.73;;;12.30;99.90;;;;;;5049007;28;20891;-59
2023/10/23 07:29:41;;;;;;;8.13;5.50;;;12.20;99.90;;;;;;5052049;28;20198;-59
2023/10/23 07:32:06;;;;;;;10.40;5.83;;;12.10;99.90;;;;;;5056268;28;20740;-59
2023/10/23 07:34:32;;;;;;;8.60;5.33;;;12.00;99.90;;;;;;5057612;28;20207;-59
2023/10/23 07:36:57;;;;;;;7.43;5.67;;;12.10;99.90;;;;;;5039513;28;20654;-66
2023/10/23 07:39:23;;;;;;;8.17;5.17;;;12.40;99.90;;;;;;5033249;28;20208;-59
2023/10/23 07:41:48;;;;;;;6.17;5.40;;;12.50;99.90;;;;;;5052472;28;20197;-57
2023/10/23 07:44:14;;;;;;;7.80;6.17;;;12.60;99.90;;;;;;5046506;28;20634;-57
2023/10/23 07:46:39;;;;;;;8.60;7.73;;;12.60;99.90;;;;;;5053308;28;20200;-57
2023/10/23 07:49:05;;;;;;;9.80;6.43;;;12.60;99.90;;;;;;5052721;28;20291;-57
2023/10/23 07:51:30;;;;;;;6.70;6.10;;;12.60;99.90;;;;;;5056916;28;20203;-64
2023/10/23 07:53:56;;;;;;;8.03;6.47;;;12.60;99.90;;;;;;5037124;28;20238;-64
2023/10/23 07:56:21;;;;;;;8.70;6.97;;;12.50;99.90;;;;;;5055214;28;20213;-58
2023/10/23 07:58:47;;;;;;;6.53;5.93;;;12.40;99.90;;;;;;5065054;28;20196;-57
2023/10/23 08:01:14;;;;;;;6.33;5.63;;;12.40;99.90;;;;;;5033233;28;20200;-57
2023/10/23 08:03:40;;;;;;;9.10;6.90;;;12.50;99.90;;;;;;5062568;28;20194;-57
2023/10/23 08:06:09;;;;;;;6.53;5.93;;;12.60;99.90;;;;;;5065525;28;20208;-60
2023/10/23 08:08:35;;;;;;;8.77;5.97;;;12.60;99.90;;;;;;5059364;28;20201;-58
2023/10/23 08:11:06;;;;;;;7.83;5.83;;;12.70;99.90;;;;;;5048198;28;20570;-58
2023/10/23 08:13:32;;;;;;;7.27;6.40;;;12.80;99.90;;;;;;5050729;28;20241;-59
2023/10/23 08:15:57;;;;;;;6.00;5.50;;;12.70;99.90;;;;;;5035415;28;20216;-57
2023/10/23 08:18:23;;;;;;;6.93;6.23;;;12.30;99.90;;;;;;5034912;28;20201;-58
2023/10/23 08:20:49;;;;;;;6.67;6.00;;;12.10;99.90;;;;;;5039543;28;20282;-61
2023/10/23 08:23:15;;;;;;;7.03;5.23;;;12.20;99.90;;;;;;5057573;28;20197;-59
2023/10/23 08:25:44;;;;;;;9.13;6.43;;;12.30;99.90;;;;;;5041464;28;20196;-59
2023/10/23 08:28:10;;;;;;;6.13;5.60;;;12.50;99.90;;;;;;5050981;28;20252;-59
2023/10/23 08:30:35;;;;;;;8.50;6.40;;;12.70;99.90;;;;;;5056019;28;20201;-57
2023/10/23 08:33:01;;;;;;;9.73;5.93;;;12.90;99.90;;;;;;5053589;28;20683;-57
2023/10/23 08:35:27;;;;;;;6.20;5.60;;;12.90;99.90;;;;;;5056891;28;20204;-56
2023/10/23 08:37:54;;;;;;;7.10;5.67;;;12.90;99.90;;;;;;5037365;28;20223;-57
2023/10/23 08:40:20;;;;;;;6.50;5.90;;;13.00;99.90;;;;;;5036783;28;20256;-57
2023/10/23 08:42:46;;;;;;;6.20;5.63;;;13.20;99.90;;;;;;5053577;28;20276;-65
2023/10/23 08:45:14;;;;;;;8.50;6.07;;;13.30;99.90;;;;;;5048849;28;20206;-57
2023/10/23 08:47:40;;;;;;;10.97;6.47;;;13.20;99.90;;;;;;5054066;28;20217;-57
2023/10/23 08:50:06;;;;;;;8.47;6.00;;;13.10;99.90;;;;;;5054953;28;20214;-57
2023/10/23 08:52:38;;;;;;;5.37;4.90;;;13.30;99.90;;;;;;5052313;28;20569;-57
2023/10/23 08:55:07;;;;;;;6.23;5.20;;;13.30;99.90;;;;;;5031820;28;20675;-63
2023/10/23 08:57:36;;;;;;;7.20;5.43;;;13.40;99.90;;;;;;5058208;28;20197;-56
2023/10/23 09:00:01;;;;;;;6.40;5.80;;;13.50;99.90;;;;;;5047989;28;20239;-58
2023/10/23 09:02:30;;;;;;;7.47;6.33;;;13.50;99.90;;;;;;5068031;28;20205;-64
2023/10/23 09:04:55;;;;;;;10.87;5.93;;;13.60;99.90;;;;;;5056887;28;20197;-61
2023/10/23 09:07:21;;;;;;;8.33;5.57;;;13.70;99.90;;;;;;5043663;28;20200;-58
2023/10/23 09:09:46;;;;;;;6.30;5.70;;;13.70;99.90;;;;;;5055927;28;20201;-58
2023/10/23 09:12:30;;;;;;;6.53;5.97;;;13.50;99.90;;;;;;5049839;28;20194;-58
2023/10/23 09:14:56;;;;;;;6.70;5.87;;;13.60;99.90;;;;;;5074947;22;20253;-58
2023/10/23 09:17:23;;;;;;;6.03;5.47;;;13.80;99.90;;;;;;5084650;22;20231;-58
2023/10/23 09:19:49;;;;;;;5.17;4.73;;;13.70;99.90;;;;;;5061631;28;20199;-57
2023/10/23 09:22:14;;;;;;;7.47;5.60;;;13.60;99.90;;;;;;5031781;28;20205;-57
2023/10/23 09:24:40;;;;;;;6.17;5.13;;;13.60;99.90;;;;;;5063063;28;20215;-58
2023/10/23 09:27:06;;;;;;;6.43;5.80;;;13.80;99.90;;;;;;5065156;28;20876;-57
2023/10/23 09:29:32;;;;;;;6.40;5.73;;;13.90;99.90;;;;;;5060322;28;20200;-57
2023/10/23 09:31:58;;;;;;;5.93;4.63;;;13.80;99.90;;;;;;5065100;28;20283;-57
2023/10/23 09:34:24;;;;;;;5.23;4.73;;;13.60;99.90;;;;;;5060986;28;20232;-62
2023/10/23 09:36:51;;;;;;;6.37;5.43;;;13.40;99.90;;;;;;5051209;28;20285;-59
2023/10/23 09:39:18;;;;;;;6.30;5.67;;;13.40;99.90;;;;;;5055930;28;20195;-55
2023/10/23 09:41:45;;;;;;;6.77;6.07;;;13.40;99.90;;;;;;5055311;28;20200;-59
2023/10/23 09:44:13;;;;;;;5.33;4.80;;;13.80;99.90;;;;;;5051874;28;20206;-57
2023/10/23 09:46:39;;;;;;;6.67;5.20;;;13.90;99.90;;;;;;5058785;28;20947;-57
2023/10/23 09:49:06;;;;;;;6.63;5.53;;;14.00;99.90;;;;;;5041063;28;20202;-56
2023/10/23 09:51:37;;;;;;;5.87;4.60;;;14.30;99.90;;;;;;5036869;28;20553;-58
2023/10/23 09:54:06;;;;;;;8.70;5.13;;;14.40;99.90;;;;;;5050575;28;20233;-59
2023/10/23 09:56:32;;;;;;;6.13;5.53;;;14.40;99.90;;;;;;5056552;28;20834;-59
2023/10/23 09:59:00;;;;;;;6.23;5.63;;;14.50;99.90;;;;;;5057468;28;20280;-59
2023/10/23 10:01:38;;;;;;;6.30;5.53;;;14.30;99.90;;;;;;5035062;28;20857;-59
2023/10/23 10:04:13;;;;;;;6.37;5.77;;;14.10;99.90;;;;;;5057865;28;20314;-57
2023/10/23 10:06:48;;;;;;;6.87;5.13;;;14.40;99.90;;;;;;5063839;28;20217;-56
2023/10/23 10:09:14;;;;;;;21.37;12.63;;;14.80;99.90;;;;;;5055296;28;20197;-57
2023/10/23 10:11:44;;;;;;;32.43;22.00;;;14.60;99.90;;;;;;5038691;28;20232;-58
2023/10/23 10:14:14;;;;;;;9.60;8.80;;;14.30;99.90;;;;;;5057999;28;20864;-58
2023/10/23 10:16:40;;;;;;;26.83;18.87;;;14.40;99.90;;;;;;5061750;28;20245;-58
2023/10/23 10:19:07;;;;;;;16.27;13.53;;;14.50;99.90;;;;;;5055060;28;20274;-57
2023/10/23 10:21:45;;;;;;;7.97;6.70;;;14.40;99.90;;;;;;5063605;28;20198;-57
2023/10/23 10:24:11;;;;;;;11.17;6.03;;;14.40;99.90;;;;;;5056244;28;20609;-57
2023/10/23 10:26:38;;;;;;;8.13;7.33;;;14.30;99.90;;;;;;5053837;28;20185;-58
2023/10/23 10:29:04;;;;;;;7.63;6.83;;;14.20;99.90;;;;;;5061504;28;20279;-59
2023/10/23 10:32:11;;;;;;;7.17;6.50;;;14.10;99.90;;;;;;5057833;28;20734;-58
2023/10/23 10:34:51;;;;;;;6.87;6.17;;;14.00;99.90;;;;;;5045626;28;20194;-58
2023/10/23 10:37:16;;;;;;;6.03;5.43;;;14.10;99.90;;;;;;5054376;28;20258;-58
2023/10/23 10:39:52;;;;;;;7.03;6.33;;;14.10;99.90;;;;;;5059252;28;20724;-59
2023/10/23 10:42:22;;;;;;;7.10;6.40;;;14.00;99.90;;;;;;5042544;28;20200;-59
2023/10/23 10:44:57;;;;;;;7.93;6.37;;;14.20;99.90;;;;;;5032678;28;20198;-58
2023/10/23 10:47:36;;;;;;;8.77;6.77;;;14.30;99.90;;;;;;5029975;28;20198;-59
2023/10/23 10:50:04;;;;;;;8.60;5.90;;;14.50;99.90;;;;;;5049869;28;20826;-57
2023/10/23 10:52:33;;;;;;;6.27;5.43;;;14.70;99.90;;;;;;5054777;28;20255;-58
2023/10/23 10:55:07;;;;;;;6.13;5.43;;;14.80;99.90;;;;;;5060916;28;20202;-58
2023/10/23 10:57:34;;;;;;;6.87;6.17;;;14.60;99.90;;;;;;5054833;28;20199;-61
2023/10/23 11:00:00;;;;;;;5.30;4.80;;;14.60;99.90;;;;;;5042841;28;20202;-58
2023/10/23 11:02:26;;;;;;;6.63;5.07;;;14.70;99.90;;;;;;5053310;28;20217;-60
2023/10/23 11:04:51;;;;;;;6.03;5.43;;;14.80;99.90;;;;;;5042390;28;20194;-61
2023/10/23 11:07:25;;;;;;;7.70;5.10;;;14.80;99.90;;;;;;5058206;28;20198;-57
2023/10/23 11:09:51;;;;;;;6.10;5.13;;;14.70;99.90;;;;;;5051628;28;20291;-58
2023/10/23 11:12:20;;;;;;;5.97;5.43;;;14.90;99.90;;;;;;5056660;28;20248;-65
2023/10/23 11:14:49;;;;;;;5.83;5.27;;;15.20;99.90;;;;;;5057228;28;20201;-58
2023/10/23 11:17:15;;;;;;;4.93;4.43;;;15.40;99.90;;;;;;5058111;28;20686;-62
2023/10/23 11:19:44;;;;;;;5.97;4.80;;;15.60;99.90;;;;;;5065151;28;21073;-64
2023/10/23 11:22:11;;;;;;;5.57;5.07;;;15.80;99.90;;;;;;5049271;28;20267;-66
2023/10/23 11:24:37;;;;;;;6.43;4.67;;;16.30;99.90;;;;;;5050862;28;20218;-58
2023/10/23 11:27:04;;;;;;;6.03;4.90;;;16.30;99.90;;;;;;5057757;28;20226;-58
2023/10/23 11:29:37;;;;;;;8.23;5.73;;;16.30;99.90;;;;;;5048326;28;20202;-60
2023/10/23 11:32:03;;;;;;;6.10;4.53;;;15.90;99.90;;;;;;5053062;28;20240;-57
2023/10/23 11:34:29;;;;;;;4.70;4.30;;;16.30;99.90;;;;;;5060284;28;20186;-58
2023/10/23 11:36:54;;;;;;;5.77;5.27;;;16.00;99.90;;;;;;5053235;28;20301;-58
2023/10/23 11:39:20;;;;;;;6.40;4.73;;;15.80;99.90;;;;;;5057161;28;20277;-58
2023/10/23 11:41:54;;;;;;;4.93;4.53;;;15.70;99.90;;;;;;5058687;28;20206;-58
2023/10/23 11:44:20;;;;;;;4.40;4.10;;;15.40;99.90;;;;;;5055006;28;20230;-57
2023/10/23 11:46:46;;;;;;;9.27;5.07;;;15.60;99.90;;;;;;5057828;28;20205;-57
2023/10/23 11:49:11;;;;;;;13.07;6.90;;;15.70;99.90;;;;;;5042676;28;20205;-59
2023/10/23 11:51:37;;;;;;;5.13;4.63;;;15.60;99.90;;;;;;5061245;28;20213;-59
2023/10/23 11:54:04;;;;;;;4.57;4.17;;;15.70;99.90;;;;;;5048585;28;20611;-60
2023/10/23 11:56:32;;;;;;;4.73;4.30;;;16.00;99.90;;;;;;5057888;28;20669;-60
2023/10/23 11:58:58;;;;;;;5.57;4.03;;;16.30;99.90;;;;;;5059609;28;20202;-65
2023/10/23 12:01:23;;;;;;;4.67;4.27;;;17.20;99.90;;;;;;5053295;28;20208;-58
2023/10/23 12:03:48;;;;;;;5.30;4.03;;;16.80;99.90;;;;;;5057334;28;20236;-58
2023/10/23 12:06:14;;;;;;;4.57;4.17;;;16.50;99.90;;;;;;5047941;28;20572;-59
2023/10/23 12:08:39;;;;;;;5.00;4.60;;;16.20;99.90;;;;;;5045779;28;20385;-66
2023/10/23 12:11:05;;;;;;;4.00;3.70;;;16.40;99.90;;;;;;5053163;28;20233;-70
2023/10/23 12:13:31;;;;;;;4.17;3.87;;;16.20;99.90;;;;;;5049406;28;20210;-62
2023/10/23 12:15:56;;;;;;;5.07;4.57;;;16.30;99.90;;;;;;5042876;28;20645;-65
2023/10/23 12:18:23;;;;;;;5.00;4.47;;;16.40;99.90;;;;;;5038550;28;20213;-65
2023/10/23 12:20:49;;;;;;;4.43;3.43;;;16.90;99.90;;;;;;5064303;28;20197;-59
2023/10/23 12:23:14;;;;;;;5.03;4.60;;;16.70;99.90;;;;;;5057104;28;20207;-56
2023/10/23 12:25:40;;;;;;;4.50;3.93;;;17.00;99.90;;;;;;5052617;28;20214;-61
2023/10/23 12:28:05;;;;;;;3.83;3.33;;;17.00;99.90;;;;;;5053844;28;20337;-57
2023/10/23 12:30:31;;;;;;;4.53;3.67;;;17.30;99.90;;;;;;5056909;28;20234;-62
2023/10/23 12:32:56;;;;;;;3.80;3.03;;;17.80;99.90;;;;;;5036651;28;20233;-58
2023/10/23 12:35:22;;;;;;;2.80;2.60;;;18.30;99.90;;;;;;5052353;28;20246;-61
2023/10/23 12:37:47;;;;;;;3.30;3.10;;;20.00;99.90;;;;;;5053911;28;20666;-59
2023/10/23 12:40:13;;;;;;;3.50;3.00;;;19.60;99.90;;;;;;5059434;28;20189;-65
2023/10/23 12:42:39;;;;;;;3.50;3.20;;;19.20;99.90;;;;;;5051009;28;20455;-60